Weather at Fishtrap Heliport

Public forecast

Using degrees Fahrenheit for public forecast. Weather courtesy of forecast.io.

Closest aviation weather report (METAR) to Fishtrap Heliport

Closest report is Olympia Regional Airport, 10.9 nm (20.2 km) S.

2024/07/14 17:54 (retrieved 14 minutes ago)

KOLM 141754Z 20005KT 10SM CLR 22/14 A3005 RMK AO2 SLP175 T02220139 10222 20133 50000

Closest aviation forecast (TAF) to Fishtrap Heliport

Closest forecast is Olympia Regional Airport, 10.9 nm (20.2 km) S.

2024/07/14 18:27 (retrieved 0 seconds ago)

TAF KOLM 141725Z 1418/1518 23006KT P6SM SKC FM150900 20005KT 6SM BR SCT002 BKN020 FM151700 21005KT P6SM SCT020